createdAt,value
2023-07-15T00:00:23.487Z,72.45
2023-07-15T00:02:55.418Z,72.85
2023-07-15T00:05:36.631Z,72.68
2023-07-15T00:08:05.021Z,72.42
2023-07-15T00:10:34.858Z,71.66
2023-07-15T00:13:03.443Z,70.54
2023-07-15T00:15:30.566Z,70.45
2023-07-15T00:17:59.014Z,71.04
2023-07-15T00:20:26.948Z,71.62
2023-07-15T00:22:55.627Z,71.82
2023-07-15T00:25:23.503Z,71.43
2023-07-15T00:27:51.292Z,71.79
2023-07-15T00:30:22.795Z,71.56
2023-07-15T00:32:52.724Z,71.56
2023-07-15T00:35:32.671Z,72.07
2023-07-15T00:38:00.868Z,72.02
2023-07-15T00:40:29.674Z,72.13
2023-07-15T00:43:53.109Z,72.44
2023-07-15T00:46:20.919Z,72.68
2023-07-15T00:49:30.801Z,72.50
2023-07-15T00:52:03.537Z,72.33
2023-07-15T00:54:35.323Z,72.41
2023-07-15T00:57:04.509Z,72.57
2023-07-15T00:59:32.641Z,72.23
2023-07-15T01:02:01.070Z,72.00
2023-07-15T01:04:28.801Z,72.24
2023-07-15T01:06:56.774Z,72.63
2023-07-15T01:09:25.815Z,72.70
2023-07-15T01:11:53.447Z,73.34
2023-07-15T01:14:21.207Z,72.92
2023-07-15T01:16:49.270Z,72.89
2023-07-15T01:19:20.160Z,72.95
2023-07-15T01:21:52.551Z,73.80
2023-07-15T01:24:22.158Z,72.92
2023-07-15T01:26:56.805Z,71.86
2023-07-15T01:29:24.266Z,73.81
2023-07-15T01:31:52.050Z,74.42
2023-07-15T01:34:21.108Z,74.39
2023-07-15T01:36:49.832Z,73.06
2023-07-15T01:39:18.015Z,73.26
2023-07-15T01:41:46.201Z,74.34
2023-07-15T01:44:15.774Z,75.00
2023-07-15T01:46:43.629Z,74.62
2023-07-15T01:49:11.499Z,73.85
2023-07-15T01:51:38.674Z,73.91
2023-07-15T01:54:06.374Z,73.48
2023-07-15T01:56:35.335Z,73.46
2023-07-15T01:59:02.471Z,73.51
2023-07-15T02:01:31.524Z,73.99
2023-07-15T02:03:59.614Z,73.41
2023-07-15T02:06:27.269Z,73.19
2023-07-15T02:08:56.616Z,72.99
2023-07-15T02:11:25.568Z,73.78
2023-07-15T02:13:53.005Z,74.35
2023-07-15T02:16:20.734Z,75.21
2023-07-15T02:18:51.755Z,75.58
2023-07-15T02:21:20.777Z,72.30
2023-07-15T02:23:48.815Z,70.17
2023-07-15T02:26:16.927Z,71.71
2023-07-15T02:28:44.884Z,72.93
2023-07-15T02:31:12.782Z,74.58
2023-07-15T02:33:40.478Z,76.90
2023-07-15T02:36:08.537Z,78.53
2023-07-15T02:38:36.352Z,80.63
2023-07-15T02:41:04.080Z,80.89
2023-07-15T02:43:33.302Z,81.15
2023-07-15T02:46:00.856Z,82.09
2023-07-15T02:48:28.037Z,83.33
2023-07-15T02:50:58.901Z,82.92
2023-07-15T02:53:27.543Z,81.49
2023-07-15T02:55:55.943Z,80.88
2023-07-15T02:58:24.221Z,80.88
2023-07-15T03:00:55.524Z,81.24
2023-07-15T03:03:23.335Z,81.55
2023-07-15T03:05:52.654Z,81.22
2023-07-15T03:08:21.222Z,80.81
2023-07-15T03:10:51.039Z,81.01
2023-07-15T03:13:19.602Z,80.36
2023-07-15T03:15:46.915Z,80.38
2023-07-15T03:18:14.900Z,79.20
2023-07-15T03:20:42.618Z,79.96
2023-07-15T03:23:13.067Z,80.25
2023-07-15T03:25:40.929Z,78.25
2023-07-15T03:28:08.018Z,78.16
2023-07-15T03:30:35.176Z,78.49
2023-07-15T03:33:02.990Z,77.86
2023-07-15T03:35:30.819Z,78.78
2023-07-15T03:37:58.016Z,79.15
2023-07-15T03:40:25.612Z,79.20
2023-07-15T03:42:52.769Z,77.75
2023-07-15T03:45:20.209Z,77.49
2023-07-15T03:47:47.736Z,76.51
2023-07-15T03:50:15.794Z,72.92
2023-07-15T03:52:43.472Z,72.16
2023-07-15T03:55:11.287Z,72.24
2023-07-15T03:57:39.249Z,72.57
2023-07-15T04:00:15.210Z,74.38
2023-07-15T04:02:46.353Z,75.15
2023-07-15T04:05:14.206Z,75.55
2023-07-15T04:07:42.119Z,73.85
2023-07-15T04:10:10.370Z,74.38
2023-07-15T04:12:37.906Z,73.32
2023-07-15T04:15:06.848Z,67.88
2023-07-15T04:17:34.313Z,63.12
2023-07-15T04:20:01.918Z,64.77
2023-07-15T04:22:31.067Z,61.83
2023-07-15T04:24:58.576Z,63.08
2023-07-15T04:27:25.675Z,54.67
2023-07-15T04:29:53.815Z,48.88
2023-07-15T04:32:20.908Z,49.71
2023-07-15T04:34:51.498Z,54.51
2023-07-15T04:37:19.078Z,55.04
2023-07-15T04:39:46.261Z,46.21
2023-07-15T04:42:13.849Z,41.29
2023-07-15T04:44:41.503Z,41.07
2023-07-15T04:47:09.278Z,40.61
2023-07-15T04:49:37.389Z,37.55
2023-07-15T04:52:05.520Z,33.42
2023-07-15T04:54:32.775Z,31.55
2023-07-15T04:56:59.876Z,29.57
2023-07-15T04:59:27.689Z,27.93
2023-07-15T05:01:54.909Z,25.61
2023-07-15T05:04:22.538Z,25.24
2023-07-15T05:06:50.106Z,26.65
2023-07-15T05:09:18.032Z,26.42
2023-07-15T05:11:45.955Z,25.32
2023-07-15T05:14:13.668Z,26.43
2023-07-15T05:16:44.670Z,25.85
2023-07-15T05:19:12.895Z,23.88
2023-07-15T05:21:40.013Z,22.01
2023-07-15T05:24:08.240Z,21.43
2023-07-15T05:26:36.080Z,21.69
2023-07-15T05:29:04.422Z,20.83
2023-07-15T05:31:35.495Z,19.20
2023-07-15T05:34:05.618Z,19.86
2023-07-15T05:36:33.271Z,19.61
2023-07-15T05:39:00.836Z,18.90
2023-07-15T05:41:28.981Z,19.22
2023-07-15T05:43:56.989Z,21.06
2023-07-15T05:46:24.921Z,21.51
2023-07-15T05:48:52.922Z,21.72
2023-07-15T05:51:20.415Z,21.15
2023-07-15T05:53:48.471Z,20.51
2023-07-15T05:56:16.735Z,21.11
2023-07-15T05:58:44.491Z,19.59
2023-07-15T06:01:15.616Z,18.53
2023-07-15T06:03:43.639Z,19.13
2023-07-15T06:06:11.978Z,19.01
2023-07-15T06:08:39.862Z,18.75
2023-07-15T06:11:07.629Z,18.26
2023-07-15T06:13:35.148Z,17.70
2023-07-15T06:16:03.152Z,17.55
2023-07-15T06:18:30.464Z,16.87
2023-07-15T06:20:58.260Z,16.86
2023-07-15T06:23:26.462Z,16.70
2023-07-15T06:25:53.811Z,17.26
2023-07-15T06:28:20.982Z,16.92
2023-07-15T06:30:50.554Z,16.96
2023-07-15T06:33:18.471Z,17.22
2023-07-15T06:35:46.812Z,15.82
2023-07-15T06:38:14.772Z,16.77
2023-07-15T06:40:43.399Z,16.84
2023-07-15T06:43:11.828Z,16.48
2023-07-15T06:45:40.183Z,15.81
2023-07-15T06:48:07.426Z,17.15
2023-07-15T06:50:35.162Z,16.11
2023-07-15T06:53:02.818Z,16.88
2023-07-15T06:55:30.579Z,16.95
2023-07-15T06:57:58.352Z,16.39
2023-07-15T07:00:26.324Z,16.56
2023-07-15T07:02:54.346Z,17.94
2023-07-15T07:05:22.313Z,17.93
2023-07-15T07:07:50.208Z,17.36
2023-07-15T07:10:21.661Z,16.83
2023-07-15T07:12:49.413Z,16.90
2023-07-15T07:15:17.241Z,16.39
2023-07-15T07:17:45.283Z,16.77
2023-07-15T07:20:13.393Z,16.97
2023-07-15T07:22:41.076Z,17.11
2023-07-15T07:25:09.347Z,17.05
2023-07-15T07:27:36.446Z,16.37
2023-07-15T07:30:04.497Z,16.36
2023-07-15T07:32:32.226Z,16.35
2023-07-15T07:34:59.504Z,16.59
2023-07-15T07:37:27.092Z,16.85
2023-07-15T07:39:54.927Z,17.84
2023-07-15T07:42:22.339Z,17.84
2023-07-15T07:44:50.151Z,18.11
2023-07-15T07:47:17.851Z,18.07
2023-07-15T07:49:45.560Z,17.91
2023-07-15T07:52:15.935Z,17.85
2023-07-15T07:54:43.456Z,17.96
2023-07-15T07:57:15.520Z,19.41
2023-07-15T07:59:43.414Z,19.78
2023-07-15T08:02:14.358Z,19.70
2023-07-15T08:04:45.461Z,19.86
2023-07-15T08:07:13.453Z,20.06
2023-07-15T08:09:41.127Z,19.93
2023-07-15T08:12:11.787Z,19.94
2023-07-15T08:14:38.879Z,20.67
2023-07-15T08:17:05.910Z,21.14
2023-07-15T08:19:33.408Z,20.82
2023-07-15T08:22:00.980Z,21.14
2023-07-15T08:24:28.209Z,22.05
2023-07-15T08:26:55.904Z,21.40
2023-07-15T08:29:23.105Z,21.85
2023-07-15T08:31:50.912Z,21.24
2023-07-15T08:34:21.579Z,21.45
2023-07-15T08:36:49.949Z,21.77
2023-07-15T08:39:17.357Z,22.63
2023-07-15T08:41:45.745Z,21.46
2023-07-15T08:44:15.889Z,21.65
2023-07-15T08:46:44.889Z,24.38
2023-07-15T08:49:13.422Z,23.64
2023-07-15T08:51:40.732Z,23.30
2023-07-15T08:54:09.711Z,23.48
2023-07-15T08:56:38.907Z,23.90
2023-07-15T08:59:07.921Z,23.20
2023-07-15T09:01:38.754Z,23.55
2023-07-15T09:04:06.191Z,24.56
2023-07-15T09:06:34.208Z,24.04
2023-07-15T09:09:01.560Z,23.49
2023-07-15T09:11:44.104Z,23.58
2023-07-15T09:14:18.348Z,24.33
2023-07-15T09:16:46.439Z,25.31
2023-07-15T09:19:14.765Z,25.05
2023-07-15T09:22:04.961Z,24.92
2023-07-15T09:24:34.519Z,25.11
2023-07-15T09:27:03.662Z,25.04
2023-07-15T09:29:31.724Z,24.82
2023-07-15T09:32:00.190Z,24.75
2023-07-15T09:34:28.734Z,24.94
2023-07-15T09:36:57.150Z,26.04
2023-07-15T09:39:27.858Z,26.27
2023-07-15T09:42:06.955Z,25.62
2023-07-15T09:44:45.884Z,25.62
2023-07-15T09:47:13.547Z,25.49
2023-07-15T09:49:41.107Z,26.76
2023-07-15T09:52:08.629Z,26.82
2023-07-15T09:54:37.272Z,27.01
2023-07-15T09:57:14.688Z,26.22
2023-07-15T09:59:56.289Z,26.33
2023-07-15T10:02:59.933Z,26.77
2023-07-15T10:05:28.523Z,25.72
2023-07-15T10:07:56.754Z,25.57
2023-07-15T10:10:24.540Z,25.56
2023-07-15T10:12:52.020Z,26.25
2023-07-15T10:15:20.384Z,26.91
2023-07-15T10:17:50.456Z,26.02
2023-07-15T10:20:21.651Z,26.22
2023-07-15T10:22:56.147Z,26.09
2023-07-15T10:25:23.301Z,26.08
2023-07-15T10:27:50.598Z,25.53
2023-07-15T10:30:30.592Z,26.10
2023-07-15T10:33:10.265Z,26.01
2023-07-15T10:35:44.281Z,25.58
2023-07-15T10:38:33.221Z,25.86
2023-07-15T10:41:06.120Z,26.08
2023-07-15T10:43:41.901Z,27.08
2023-07-15T10:46:17.157Z,27.54
2023-07-15T10:48:46.249Z,28.38
2023-07-15T10:51:14.430Z,28.27
2023-07-15T10:53:42.084Z,28.04
2023-07-15T10:56:12.167Z,27.60
2023-07-15T10:58:42.132Z,28.08
2023-07-15T11:01:13.417Z,28.29
2023-07-15T11:03:43.157Z,27.75
2023-07-15T11:06:12.337Z,27.92
2023-07-15T11:08:42.373Z,27.81
2023-07-15T11:11:11.982Z,28.11
2023-07-15T11:13:42.594Z,28.23
2023-07-15T11:16:10.698Z,28.30
2023-07-15T11:18:38.707Z,27.80
2023-07-15T11:21:06.665Z,28.24
2023-07-15T11:23:34.911Z,28.83
2023-07-15T11:26:11.385Z,28.60
2023-07-15T11:28:52.042Z,28.63
2023-07-15T11:31:23.350Z,28.16
2023-07-15T11:33:53.396Z,29.07
2023-07-15T11:36:24.261Z,29.54
2023-07-15T11:38:51.698Z,29.52
2023-07-15T11:41:19.349Z,29.38
2023-07-15T11:43:50.690Z,28.42
2023-07-15T11:46:18.986Z,27.97
2023-07-15T11:48:47.597Z,28.68
2023-07-15T11:51:15.437Z,28.18
2023-07-15T11:53:46.402Z,27.76
2023-07-15T11:56:33.617Z,26.97
2023-07-15T11:59:01.117Z,27.09
2023-07-15T12:01:29.168Z,27.00
2023-07-15T12:03:56.646Z,27.27
2023-07-15T12:06:27.830Z,26.84
2023-07-15T12:09:16.178Z,26.79
2023-07-15T12:11:44.381Z,26.91
2023-07-15T12:14:13.478Z,26.99
2023-07-15T12:16:41.864Z,27.17
2023-07-15T12:19:16.103Z,27.22
2023-07-15T12:21:43.449Z,27.45
2023-07-15T12:24:10.714Z,27.45
2023-07-15T12:26:38.642Z,27.57
2023-07-15T12:29:05.732Z,26.91
2023-07-15T12:31:33.472Z,26.91
2023-07-15T12:34:01.040Z,26.82
2023-07-15T12:36:28.763Z,26.60
2023-07-15T12:38:56.517Z,26.64
2023-07-15T12:41:24.444Z,26.77
2023-07-15T12:43:51.644Z,26.56
2023-07-15T12:46:19.252Z,26.66
2023-07-15T12:48:46.733Z,26.58
2023-07-15T12:51:13.818Z,26.50
2023-07-15T12:53:41.486Z,26.33
2023-07-15T12:56:13.206Z,26.23
2023-07-15T12:58:41.610Z,25.50
2023-07-15T13:01:09.611Z,25.48
2023-07-15T13:03:36.840Z,25.61
2023-07-15T13:06:05.839Z,25.84
2023-07-15T13:08:33.214Z,25.51
2023-07-15T13:11:00.284Z,25.19
2023-07-15T13:13:27.963Z,25.37
2023-07-15T13:15:55.092Z,25.44
2023-07-15T13:18:22.740Z,25.40
2023-07-15T13:20:50.062Z,25.26
2023-07-15T13:23:17.331Z,25.17
2023-07-15T13:25:44.616Z,25.18
2023-07-15T13:28:11.684Z,24.93
2023-07-15T13:30:38.785Z,25.18
2023-07-15T13:33:07.152Z,25.47
2023-07-15T13:35:34.242Z,25.18
2023-07-15T13:38:01.320Z,25.29
2023-07-15T13:40:28.407Z,25.38
2023-07-15T13:42:56.041Z,25.12
2023-07-15T13:45:23.706Z,25.40
2023-07-15T13:47:54.170Z,25.86
2023-07-15T13:50:22.067Z,25.84
2023-07-15T13:52:49.635Z,26.21
2023-07-15T13:55:18.363Z,26.47
2023-07-15T13:57:46.614Z,26.42
2023-07-15T14:00:15.010Z,26.90
2023-07-15T14:02:43.226Z,27.03
2023-07-15T14:05:11.630Z,26.64
2023-07-15T14:07:39.419Z,26.73
2023-07-15T14:10:07.775Z,27.17
2023-07-15T14:12:35.137Z,27.11
2023-07-15T14:15:02.512Z,27.34
2023-07-15T14:17:30.365Z,27.39
2023-07-15T14:19:58.242Z,28.18
2023-07-15T14:22:38.677Z,27.85
2023-07-15T14:25:10.726Z,27.69
2023-07-15T14:27:37.860Z,27.51
2023-07-15T14:30:06.600Z,27.37
2023-07-15T14:32:34.490Z,27.87
2023-07-15T14:35:01.793Z,27.71
2023-07-15T14:37:29.613Z,27.61
2023-07-15T14:39:56.754Z,27.48
2023-07-15T14:42:23.795Z,27.60
2023-07-15T14:44:51.087Z,27.54
2023-07-15T14:47:18.753Z,27.56
2023-07-15T14:49:46.906Z,27.83
2023-07-15T14:52:13.977Z,27.60
2023-07-15T14:54:41.065Z,27.74
2023-07-15T14:57:08.313Z,27.31
2023-07-15T14:59:35.898Z,27.71
2023-07-15T15:02:03.076Z,27.96
2023-07-15T15:04:30.951Z,29.00
2023-07-15T15:06:58.082Z,28.47
2023-07-15T15:09:25.710Z,28.48
2023-07-15T15:11:53.159Z,29.09
2023-07-15T15:14:24.366Z,28.38
2023-07-15T15:16:52.330Z,28.81
2023-07-15T15:19:20.335Z,28.57
2023-07-15T15:21:47.744Z,28.60
2023-07-15T15:24:15.351Z,28.28
2023-07-15T15:26:43.950Z,27.71
2023-07-15T15:29:11.053Z,28.02
2023-07-15T15:31:41.818Z,28.18
2023-07-15T15:34:09.968Z,28.30
2023-07-15T15:36:39.449Z,28.60
2023-07-15T15:39:09.632Z,28.05
2023-07-15T15:41:36.855Z,28.22
2023-07-15T15:44:05.605Z,28.26
2023-07-15T15:46:32.871Z,28.50
2023-07-15T15:48:59.967Z,28.37
2023-07-15T15:51:27.050Z,28.20
2023-07-15T15:54:06.556Z,28.09
2023-07-15T15:56:39.071Z,28.57
2023-07-15T15:59:06.995Z,28.19
2023-07-15T16:01:35.268Z,27.93
2023-07-15T16:04:03.364Z,27.41
2023-07-15T16:06:31.381Z,27.55
2023-07-15T16:08:59.300Z,27.74
2023-07-15T16:11:26.552Z,28.01
2023-07-15T16:13:58.320Z,27.89
2023-07-15T16:16:25.506Z,27.55
2023-07-15T16:18:52.680Z,27.61
2023-07-15T16:21:20.167Z,27.37
2023-07-15T16:23:47.760Z,27.25
2023-07-15T16:26:14.812Z,27.75
2023-07-15T16:28:41.902Z,28.18
2023-07-15T16:31:08.986Z,28.12
2023-07-15T16:33:36.100Z,28.46
2023-07-15T16:36:03.676Z,28.08
2023-07-15T16:38:31.143Z,28.19
2023-07-15T16:40:59.686Z,27.88
2023-07-15T16:43:27.355Z,27.91
2023-07-15T16:45:58.814Z,28.25
2023-07-15T16:48:26.654Z,27.96
2023-07-15T16:50:53.924Z,28.15
2023-07-15T16:53:24.133Z,28.32
2023-07-15T16:55:51.858Z,28.55
2023-07-15T16:58:20.679Z,28.44
2023-07-15T17:00:48.393Z,28.09
2023-07-15T17:03:16.327Z,28.43
2023-07-15T17:05:43.924Z,28.79
2023-07-15T17:08:11.494Z,28.87
2023-07-15T17:10:38.632Z,28.79
2023-07-15T17:13:06.282Z,29.18
2023-07-15T17:15:34.071Z,29.33
2023-07-15T17:18:01.182Z,28.64
2023-07-15T17:20:28.933Z,29.39
2023-07-15T17:22:56.188Z,28.48
2023-07-15T17:25:23.704Z,29.47
2023-07-15T17:27:51.543Z,29.42
2023-07-15T17:30:19.554Z,29.30
2023-07-15T17:32:47.070Z,29.21
2023-07-15T17:35:15.153Z,29.67
2023-07-15T17:37:42.855Z,29.42
2023-07-15T17:40:11.017Z,29.73
2023-07-15T17:42:38.335Z,29.38
2023-07-15T17:45:07.087Z,29.69
2023-07-15T17:47:37.317Z,29.62
2023-07-15T17:50:06.344Z,30.14
2023-07-15T17:52:33.430Z,30.35
2023-07-15T17:55:09.932Z,30.06
2023-07-15T17:57:45.009Z,30.20
2023-07-15T18:00:13.182Z,30.52
2023-07-15T18:02:40.523Z,30.62
2023-07-15T18:05:08.659Z,30.43
2023-07-15T18:07:36.378Z,30.79
2023-07-15T18:10:04.988Z,30.66
2023-07-15T18:12:32.412Z,31.00
2023-07-15T18:14:59.584Z,31.06
2023-07-15T18:17:27.146Z,30.99
2023-07-15T18:19:54.884Z,31.12
2023-07-15T18:22:22.534Z,31.39
2023-07-15T18:24:51.646Z,31.51
2023-07-15T18:27:20.638Z,31.33
2023-07-15T18:29:48.544Z,31.80
2023-07-15T18:32:16.281Z,31.47
2023-07-15T18:34:44.374Z,32.23
2023-07-15T18:37:12.385Z,31.73
2023-07-15T18:39:40.037Z,32.18
2023-07-15T18:42:07.768Z,32.39
2023-07-15T18:44:35.171Z,32.62
2023-07-15T18:47:02.780Z,32.95
2023-07-15T18:49:30.555Z,33.04
2023-07-15T18:51:58.148Z,32.89
2023-07-15T18:54:25.599Z,33.36
2023-07-15T18:56:55.309Z,33.32
2023-07-15T18:59:27.619Z,33.00
2023-07-15T19:01:55.577Z,33.48
2023-07-15T19:04:24.104Z,34.45
2023-07-15T19:06:51.581Z,34.20
2023-07-15T19:09:19.958Z,34.82
2023-07-15T19:11:50.325Z,34.61
2023-07-15T19:14:20.811Z,34.79
2023-07-15T19:16:51.757Z,35.12
2023-07-15T19:19:19.378Z,35.30
2023-07-15T19:21:47.178Z,34.61
2023-07-15T19:24:15.361Z,35.13
2023-07-15T19:26:43.125Z,35.54
2023-07-15T19:29:10.895Z,35.71
2023-07-15T19:31:38.560Z,36.03
2023-07-15T19:34:06.052Z,36.81
2023-07-15T19:36:33.583Z,35.97
2023-07-15T19:39:00.818Z,36.47
2023-07-15T19:41:28.391Z,36.14
2023-07-15T19:43:56.369Z,36.59
2023-07-15T19:46:24.293Z,36.24
2023-07-15T19:48:51.968Z,36.68
2023-07-15T19:51:27.843Z,36.89
2023-07-15T19:54:06.546Z,36.58
2023-07-15T19:56:34.099Z,36.78
2023-07-15T19:59:03.579Z,37.19
2023-07-15T20:01:36.219Z,37.01
2023-07-15T20:04:04.785Z,36.99
2023-07-15T20:06:32.425Z,37.21
2023-07-15T20:09:00.496Z,37.29
2023-07-15T20:11:28.396Z,37.05
2023-07-15T20:13:56.082Z,37.48
2023-07-15T20:16:24.009Z,37.04
2023-07-15T20:18:51.130Z,37.57
2023-07-15T20:21:18.259Z,37.90
2023-07-15T20:23:46.018Z,37.67
2023-07-15T20:26:13.946Z,38.02
2023-07-15T20:28:42.052Z,38.60
2023-07-15T20:31:09.821Z,38.40
2023-07-15T20:33:37.627Z,39.17
2023-07-15T20:36:05.120Z,38.74
2023-07-15T20:38:32.639Z,38.59
2023-07-15T20:41:02.088Z,38.92
2023-07-15T20:43:32.060Z,39.20
2023-07-15T20:45:59.928Z,39.15
2023-07-15T20:48:27.685Z,39.36
2023-07-15T20:50:55.038Z,39.49
2023-07-15T20:53:22.557Z,39.62
2023-07-15T20:55:52.804Z,39.85
2023-07-15T20:58:20.781Z,39.85
2023-07-15T21:00:54.047Z,40.46
2023-07-15T21:03:21.997Z,40.54
2023-07-15T21:06:05.773Z,40.87
2023-07-15T21:08:34.170Z,41.42
2023-07-15T21:11:03.179Z,41.96
2023-07-15T21:13:31.211Z,41.86
2023-07-15T21:16:00.617Z,42.38
2023-07-15T21:18:28.971Z,42.25
2023-07-15T21:21:02.780Z,42.38
2023-07-15T21:23:31.512Z,42.26
2023-07-15T21:26:00.400Z,42.71
2023-07-15T21:28:40.453Z,43.06
2023-07-15T21:31:08.748Z,43.27
2023-07-15T21:33:37.408Z,43.49
2023-07-15T21:36:06.174Z,43.44
2023-07-15T21:38:34.868Z,43.99
2023-07-15T21:41:04.006Z,43.96
2023-07-15T21:43:34.820Z,43.90
2023-07-15T21:46:05.657Z,43.84
2023-07-15T21:48:33.740Z,44.21
2023-07-15T21:51:02.912Z,44.40
2023-07-15T21:53:30.933Z,45.06
2023-07-15T21:55:58.766Z,44.95
2023-07-15T21:58:26.968Z,44.91
2023-07-15T22:00:59.527Z,45.24
2023-07-15T22:03:27.863Z,45.23
2023-07-15T22:05:56.345Z,45.41
2023-07-15T22:08:24.114Z,45.39
2023-07-15T22:10:51.974Z,45.36
2023-07-15T22:13:19.411Z,45.38
2023-07-15T22:15:47.021Z,45.76
2023-07-15T22:18:29.832Z,45.96
2023-07-15T22:21:07.724Z,45.56
2023-07-15T22:23:35.465Z,45.43
2023-07-15T22:26:02.950Z,45.66
2023-07-15T22:28:30.059Z,45.52
2023-07-15T22:30:57.721Z,45.92
2023-07-15T22:33:25.121Z,45.95
2023-07-15T22:35:52.552Z,46.08
2023-07-15T22:38:20.117Z,46.31
2023-07-15T22:40:47.378Z,46.38
2023-07-15T22:43:15.226Z,46.41
2023-07-15T22:45:56.217Z,46.47
2023-07-15T22:48:27.006Z,46.43
2023-07-15T22:50:54.791Z,46.54
2023-07-15T22:53:24.069Z,46.41
2023-07-15T22:55:54.750Z,46.86
2023-07-15T22:58:22.571Z,46.70
2023-07-15T23:00:55.897Z,46.98
2023-07-15T23:03:25.662Z,47.21
2023-07-15T23:05:53.446Z,47.46
2023-07-15T23:08:21.155Z,47.45
2023-07-15T23:10:48.750Z,47.71
2023-07-15T23:13:16.683Z,47.70
2023-07-15T23:15:44.347Z,47.30
2023-07-15T23:18:11.970Z,47.28
2023-07-15T23:20:39.469Z,46.99
2023-07-15T23:23:16.238Z,47.51
2023-07-15T23:25:45.104Z,47.50
2023-07-15T23:28:12.796Z,47.70
2023-07-15T23:30:49.202Z,47.48
2023-07-15T23:33:22.864Z,48.07
2023-07-15T23:35:51.723Z,47.76
2023-07-15T23:38:19.306Z,48.07
2023-07-15T23:40:47.025Z,47.95
2023-07-15T23:43:15.095Z,48.18
2023-07-15T23:45:42.880Z,47.87
2023-07-15T23:48:12.394Z,48.23
2023-07-15T23:50:40.124Z,48.49
2023-07-15T23:53:07.850Z,48.80
2023-07-15T23:55:35.071Z,48.70
2023-07-15T23:58:02.496Z,48.98
